sensor_id;sensor_type;location;lat;lon;timestamp;P1;durP1;ratioP1;P2;durP2;ratioP2
4533;SDS011;2279;51.448;7.306;2023-10-08T00:01:08;244.50;;;75.90;;
4533;SDS011;2279;51.448;7.306;2023-10-08T00:03:41;244.13;;;76.10;;
4533;SDS011;2279;51.448;7.306;2023-10-08T00:06:13;246.37;;;78.47;;
4533;SDS011;2279;51.448;7.306;2023-10-08T00:08:39;245.73;;;77.33;;
4533;SDS011;2279;51.448;7.306;2023-10-08T00:11:05;248.03;;;82.23;;
4533;SDS011;2279;51.448;7.306;2023-10-08T00:13:35;246.97;;;79.57;;
4533;SDS011;2279;51.448;7.306;2023-10-08T00:16:05;245.23;;;77.87;;
4533;SDS011;2279;51.448;7.306;2023-10-08T00:18:34;247.53;;;81.03;;
4533;SDS011;2279;51.448;7.306;2023-10-08T00:21:00;244.73;;;76.97;;
4533;SDS011;2279;51.448;7.306;2023-10-08T00:23:36;249.83;;;82.83;;
4533;SDS011;2279;51.448;7.306;2023-10-08T00:26:07;243.17;;;77.77;;
4533;SDS011;2279;51.448;7.306;2023-10-08T00:28:33;242.47;;;75.57;;
4533;SDS011;2279;51.448;7.306;2023-10-08T00:31:01;248.70;;;81.37;;
4533;SDS011;2279;51.448;7.306;2023-10-08T00:33:36;243.00;;;74.73;;
4533;SDS011;2279;51.448;7.306;2023-10-08T00:36:03;245.27;;;77.47;;
4533;SDS011;2279;51.448;7.306;2023-10-08T00:38:48;245.80;;;77.63;;
4533;SDS011;2279;51.448;7.306;2023-10-08T00:41:16;243.40;;;75.63;;
4533;SDS011;2279;51.448;7.306;2023-10-08T00:43:47;243.57;;;75.93;;
4533;SDS011;2279;51.448;7.306;2023-10-08T00:46:13;247.77;;;81.17;;
4533;SDS011;2279;51.448;7.306;2023-10-08T00:48:52;246.03;;;77.00;;
4533;SDS011;2279;51.448;7.306;2023-10-08T00:51:19;242.97;;;73.67;;
4533;SDS011;2279;51.448;7.306;2023-10-08T00:53:46;244.30;;;75.03;;
4533;SDS011;2279;51.448;7.306;2023-10-08T00:56:13;245.10;;;75.47;;
4533;SDS011;2279;51.448;7.306;2023-10-08T00:58:43;248.50;;;78.03;;
4533;SDS011;2279;51.448;7.306;2023-10-08T01:01:13;249.00;;;75.90;;
4533;SDS011;2279;51.448;7.306;2023-10-08T01:03:41;246.27;;;76.37;;
4533;SDS011;2279;51.448;7.306;2023-10-08T01:06:10;245.47;;;77.40;;
4533;SDS011;2279;51.448;7.306;2023-10-08T01:08:37;243.77;;;76.63;;
4533;SDS011;2279;51.448;7.306;2023-10-08T01:11:23;241.37;;;72.60;;
4533;SDS011;2279;51.448;7.306;2023-10-08T01:14:07;247.07;;;79.77;;
4533;SDS011;2279;51.448;7.306;2023-10-08T01:16:33;243.47;;;77.17;;
4533;SDS011;2279;51.448;7.306;2023-10-08T01:19:00;245.17;;;76.93;;
4533;SDS011;2279;51.448;7.306;2023-10-08T01:21:29;247.57;;;80.43;;
4533;SDS011;2279;51.448;7.306;2023-10-08T01:24:04;243.97;;;76.60;;
4533;SDS011;2279;51.448;7.306;2023-10-08T01:26:31;242.53;;;73.43;;
4533;SDS011;2279;51.448;7.306;2023-10-08T01:28:58;242.97;;;73.10;;
4533;SDS011;2279;51.448;7.306;2023-10-08T01:31:32;243.20;;;73.83;;
4533;SDS011;2279;51.448;7.306;2023-10-08T01:33:58;243.80;;;73.33;;
4533;SDS011;2279;51.448;7.306;2023-10-08T01:36:25;245.80;;;78.43;;
4533;SDS011;2279;51.448;7.306;2023-10-08T01:38:51;244.17;;;75.43;;
4533;SDS011;2279;51.448;7.306;2023-10-08T01:41:19;244.97;;;78.00;;
4533;SDS011;2279;51.448;7.306;2023-10-08T01:43:47;241.53;;;71.80;;
4533;SDS011;2279;51.448;7.306;2023-10-08T01:46:17;242.20;;;73.07;;
4533;SDS011;2279;51.448;7.306;2023-10-08T01:48:46;242.17;;;74.90;;
4533;SDS011;2279;51.448;7.306;2023-10-08T01:51:15;241.53;;;71.90;;
4533;SDS011;2279;51.448;7.306;2023-10-08T01:53:53;244.73;;;77.87;;
4533;SDS011;2279;51.448;7.306;2023-10-08T01:56:23;241.83;;;74.13;;
4533;SDS011;2279;51.448;7.306;2023-10-08T01:58:49;244.77;;;78.33;;
4533;SDS011;2279;51.448;7.306;2023-10-08T02:01:21;244.10;;;76.33;;
4533;SDS011;2279;51.448;7.306;2023-10-08T02:03:47;251.83;;;83.77;;
4533;SDS011;2279;51.448;7.306;2023-10-08T02:06:13;243.77;;;74.70;;
4533;SDS011;2279;51.448;7.306;2023-10-08T02:08:39;242.97;;;75.50;;
4533;SDS011;2279;51.448;7.306;2023-10-08T02:11:06;244.57;;;77.43;;
4533;SDS011;2279;51.448;7.306;2023-10-08T02:13:33;243.93;;;74.67;;
4533;SDS011;2279;51.448;7.306;2023-10-08T02:15:59;244.30;;;76.27;;
4533;SDS011;2279;51.448;7.306;2023-10-08T02:18:26;241.40;;;72.77;;
4533;SDS011;2279;51.448;7.306;2023-10-08T02:20:54;240.90;;;71.43;;
4533;SDS011;2279;51.448;7.306;2023-10-08T02:23:20;249.23;;;81.03;;
4533;SDS011;2279;51.448;7.306;2023-10-08T02:25:46;240.20;;;72.30;;
4533;SDS011;2279;51.448;7.306;2023-10-08T02:28:13;241.23;;;73.20;;
4533;SDS011;2279;51.448;7.306;2023-10-08T02:30:40;240.47;;;72.67;;
4533;SDS011;2279;51.448;7.306;2023-10-08T02:33:06;245.53;;;80.10;;
4533;SDS011;2279;51.448;7.306;2023-10-08T02:35:39;244.97;;;76.83;;
4533;SDS011;2279;51.448;7.306;2023-10-08T02:38:07;245.90;;;76.47;;
4533;SDS011;2279;51.448;7.306;2023-10-08T02:40:34;242.67;;;75.87;;
4533;SDS011;2279;51.448;7.306;2023-10-08T02:43:01;244.57;;;78.73;;
4533;SDS011;2279;51.448;7.306;2023-10-08T02:45:33;241.90;;;73.97;;
4533;SDS011;2279;51.448;7.306;2023-10-08T02:48:03;246.03;;;76.43;;
4533;SDS011;2279;51.448;7.306;2023-10-08T02:50:36;242.30;;;71.87;;
4533;SDS011;2279;51.448;7.306;2023-10-08T02:53:04;245.17;;;77.80;;
4533;SDS011;2279;51.448;7.306;2023-10-08T02:55:36;243.40;;;75.17;;
4533;SDS011;2279;51.448;7.306;2023-10-08T02:58:07;242.13;;;72.93;;
4533;SDS011;2279;51.448;7.306;2023-10-08T03:00:36;242.63;;;73.00;;
4533;SDS011;2279;51.448;7.306;2023-10-08T03:03:05;245.03;;;74.77;;
4533;SDS011;2279;51.448;7.306;2023-10-08T03:05:40;240.87;;;71.30;;
4533;SDS011;2279;51.448;7.306;2023-10-08T03:08:06;241.53;;;71.00;;
4533;SDS011;2279;51.448;7.306;2023-10-08T03:10:45;239.97;;;71.50;;
4533;SDS011;2279;51.448;7.306;2023-10-08T03:13:13;245.63;;;76.67;;
4533;SDS011;2279;51.448;7.306;2023-10-08T03:15:41;243.13;;;73.07;;
4533;SDS011;2279;51.448;7.306;2023-10-08T03:18:13;243.50;;;73.40;;
4533;SDS011;2279;51.448;7.306;2023-10-08T03:20:40;243.40;;;72.67;;
4533;SDS011;2279;51.448;7.306;2023-10-08T03:23:14;245.33;;;74.43;;
4533;SDS011;2279;51.448;7.306;2023-10-08T03:25:54;245.83;;;76.57;;
4533;SDS011;2279;51.448;7.306;2023-10-08T03:28:22;241.70;;;72.83;;
4533;SDS011;2279;51.448;7.306;2023-10-08T03:30:50;242.23;;;73.13;;
4533;SDS011;2279;51.448;7.306;2023-10-08T03:33:16;244.17;;;74.23;;
4533;SDS011;2279;51.448;7.306;2023-10-08T03:35:47;242.27;;;75.63;;
4533;SDS011;2279;51.448;7.306;2023-10-08T03:38:15;240.23;;;69.87;;
4533;SDS011;2279;51.448;7.306;2023-10-08T03:40:53;244.07;;;74.17;;
4533;SDS011;2279;51.448;7.306;2023-10-08T03:43:26;250.87;;;79.97;;
4533;SDS011;2279;51.448;7.306;2023-10-08T03:46:12;245.67;;;77.07;;
4533;SDS011;2279;51.448;7.306;2023-10-08T03:48:43;245.07;;;76.67;;
4533;SDS011;2279;51.448;7.306;2023-10-08T03:51:13;245.03;;;74.87;;
4533;SDS011;2279;51.448;7.306;2023-10-08T03:53:39;244.33;;;74.87;;
4533;SDS011;2279;51.448;7.306;2023-10-08T03:56:34;243.67;;;75.67;;
4533;SDS011;2279;51.448;7.306;2023-10-08T03:59:04;245.17;;;74.87;;
4533;SDS011;2279;51.448;7.306;2023-10-08T04:01:43;243.23;;;72.63;;
4533;SDS011;2279;51.448;7.306;2023-10-08T04:04:09;243.87;;;73.07;;
4533;SDS011;2279;51.448;7.306;2023-10-08T04:06:38;242.70;;;75.87;;
4533;SDS011;2279;51.448;7.306;2023-10-08T04:09:12;245.27;;;76.27;;
4533;SDS011;2279;51.448;7.306;2023-10-08T04:11:43;243.03;;;73.63;;
4533;SDS011;2279;51.448;7.306;2023-10-08T04:14:12;245.77;;;77.10;;
4533;SDS011;2279;51.448;7.306;2023-10-08T04:16:41;245.80;;;79.87;;
4533;SDS011;2279;51.448;7.306;2023-10-08T04:19:07;244.57;;;75.53;;
4533;SDS011;2279;51.448;7.306;2023-10-08T04:21:33;243.53;;;74.73;;
4533;SDS011;2279;51.448;7.306;2023-10-08T04:23:59;246.77;;;77.27;;
4533;SDS011;2279;51.448;7.306;2023-10-08T04:26:29;245.17;;;76.03;;
4533;SDS011;2279;51.448;7.306;2023-10-08T04:28:56;244.70;;;75.67;;
4533;SDS011;2279;51.448;7.306;2023-10-08T04:31:26;244.67;;;73.87;;
4533;SDS011;2279;51.448;7.306;2023-10-08T04:34:03;244.97;;;73.33;;
4533;SDS011;2279;51.448;7.306;2023-10-08T04:36:35;242.77;;;72.03;;
4533;SDS011;2279;51.448;7.306;2023-10-08T04:39:03;245.73;;;77.90;;
4533;SDS011;2279;51.448;7.306;2023-10-08T04:41:40;239.97;;;68.60;;
4533;SDS011;2279;51.448;7.306;2023-10-08T04:44:10;241.77;;;72.50;;
4533;SDS011;2279;51.448;7.306;2023-10-08T04:46:44;243.97;;;76.20;;
4533;SDS011;2279;51.448;7.306;2023-10-08T04:49:16;242.97;;;74.00;;
4533;SDS011;2279;51.448;7.306;2023-10-08T04:51:51;244.23;;;75.13;;
4533;SDS011;2279;51.448;7.306;2023-10-08T04:54:21;239.83;;;68.83;;
4533;SDS011;2279;51.448;7.306;2023-10-08T04:56:47;241.37;;;70.33;;
4533;SDS011;2279;51.448;7.306;2023-10-08T04:59:14;243.67;;;76.00;;
4533;SDS011;2279;51.448;7.306;2023-10-08T05:01:45;242.37;;;72.63;;
4533;SDS011;2279;51.448;7.306;2023-10-08T05:04:34;254.67;;;80.47;;
4533;SDS011;2279;51.448;7.306;2023-10-08T05:07:19;241.17;;;71.97;;
4533;SDS011;2279;51.448;7.306;2023-10-08T05:09:51;240.33;;;69.77;;
4533;SDS011;2279;51.448;7.306;2023-10-08T05:12:35;245.80;;;75.47;;
4533;SDS011;2279;51.448;7.306;2023-10-08T05:15:12;240.37;;;70.90;;
4533;SDS011;2279;51.448;7.306;2023-10-08T05:17:41;243.97;;;73.87;;
4533;SDS011;2279;51.448;7.306;2023-10-08T05:20:16;243.57;;;72.43;;
4533;SDS011;2279;51.448;7.306;2023-10-08T05:23:10;242.90;;;72.13;;
4533;SDS011;2279;51.448;7.306;2023-10-08T05:25:49;241.87;;;70.50;;
4533;SDS011;2279;51.448;7.306;2023-10-08T05:28:45;243.67;;;73.27;;
4533;SDS011;2279;51.448;7.306;2023-10-08T05:31:29;238.47;;;69.23;;
4533;SDS011;2279;51.448;7.306;2023-10-08T05:34:07;244.27;;;74.60;;
4533;SDS011;2279;51.448;7.306;2023-10-08T05:36:48;243.17;;;73.17;;
4533;SDS011;2279;51.448;7.306;2023-10-08T05:39:26;241.37;;;70.00;;
4533;SDS011;2279;51.448;7.306;2023-10-08T05:41:57;244.20;;;75.33;;
4533;SDS011;2279;51.448;7.306;2023-10-08T05:44:39;241.87;;;73.63;;
4533;SDS011;2279;51.448;7.306;2023-10-08T05:47:06;242.37;;;71.50;;
4533;SDS011;2279;51.448;7.306;2023-10-08T05:49:51;243.47;;;72.60;;
4533;SDS011;2279;51.448;7.306;2023-10-08T05:52:40;242.77;;;71.37;;
4533;SDS011;2279;51.448;7.306;2023-10-08T05:55:17;242.47;;;71.30;;
4533;SDS011;2279;51.448;7.306;2023-10-08T05:57:50;243.43;;;74.13;;
4533;SDS011;2279;51.448;7.306;2023-10-08T06:00:27;242.60;;;71.33;;
4533;SDS011;2279;51.448;7.306;2023-10-08T06:03:11;245.23;;;75.63;;
4533;SDS011;2279;51.448;7.306;2023-10-08T06:05:57;240.73;;;70.87;;
4533;SDS011;2279;51.448;7.306;2023-10-08T06:08:41;241.27;;;71.73;;
4533;SDS011;2279;51.448;7.306;2023-10-08T06:11:29;242.80;;;72.13;;
4533;SDS011;2279;51.448;7.306;2023-10-08T06:14:21;241.33;;;70.93;;
4533;SDS011;2279;51.448;7.306;2023-10-08T06:17:07;243.27;;;74.30;;
4533;SDS011;2279;51.448;7.306;2023-10-08T06:19:49;241.77;;;73.13;;
4533;SDS011;2279;51.448;7.306;2023-10-08T06:22:17;241.27;;;69.87;;
4533;SDS011;2279;51.448;7.306;2023-10-08T06:24:44;239.47;;;68.70;;
4533;SDS011;2279;51.448;7.306;2023-10-08T06:27:10;244.27;;;74.43;;
4533;SDS011;2279;51.448;7.306;2023-10-08T06:29:41;241.83;;;71.67;;
4533;SDS011;2279;51.448;7.306;2023-10-08T06:32:10;242.57;;;74.67;;
4533;SDS011;2279;51.448;7.306;2023-10-08T06:34:36;244.60;;;74.87;;
4533;SDS011;2279;51.448;7.306;2023-10-08T06:37:05;242.73;;;74.07;;
4533;SDS011;2279;51.448;7.306;2023-10-08T06:39:33;243.70;;;75.07;;
4533;SDS011;2279;51.448;7.306;2023-10-08T06:42:12;241.03;;;69.83;;
4533;SDS011;2279;51.448;7.306;2023-10-08T06:44:39;240.63;;;71.07;;
4533;SDS011;2279;51.448;7.306;2023-10-08T06:47:07;238.30;;;67.47;;
4533;SDS011;2279;51.448;7.306;2023-10-08T06:49:34;240.90;;;69.87;;
4533;SDS011;2279;51.448;7.306;2023-10-08T06:52:01;240.13;;;69.10;;
4533;SDS011;2279;51.448;7.306;2023-10-08T06:54:29;240.87;;;69.87;;
4533;SDS011;2279;51.448;7.306;2023-10-08T06:56:55;243.03;;;73.17;;
4533;SDS011;2279;51.448;7.306;2023-10-08T06:59:21;240.87;;;68.60;;
4533;SDS011;2279;51.448;7.306;2023-10-08T07:01:48;239.27;;;69.83;;
4533;SDS011;2279;51.448;7.306;2023-10-08T07:04:16;241.33;;;71.07;;
4533;SDS011;2279;51.448;7.306;2023-10-08T07:06:44;241.17;;;70.33;;
4533;SDS011;2279;51.448;7.306;2023-10-08T07:09:11;243.33;;;72.43;;
4533;SDS011;2279;51.448;7.306;2023-10-08T07:11:52;243.33;;;70.43;;
4533;SDS011;2279;51.448;7.306;2023-10-08T07:14:20;239.43;;;68.83;;
4533;SDS011;2279;51.448;7.306;2023-10-08T07:16:47;240.03;;;68.53;;
4533;SDS011;2279;51.448;7.306;2023-10-08T07:19:17;242.57;;;71.67;;
4533;SDS011;2279;51.448;7.306;2023-10-08T07:21:46;241.27;;;70.27;;
4533;SDS011;2279;51.448;7.306;2023-10-08T07:24:15;239.53;;;68.87;;
4533;SDS011;2279;51.448;7.306;2023-10-08T07:26:42;240.70;;;69.63;;
4533;SDS011;2279;51.448;7.306;2023-10-08T07:29:15;239.77;;;68.17;;
4533;SDS011;2279;51.448;7.306;2023-10-08T07:31:46;239.97;;;68.90;;
4533;SDS011;2279;51.448;7.306;2023-10-08T07:34:17;240.70;;;69.17;;
4533;SDS011;2279;51.448;7.306;2023-10-08T07:36:46;239.97;;;68.97;;
4533;SDS011;2279;51.448;7.306;2023-10-08T07:39:13;240.10;;;69.20;;
4533;SDS011;2279;51.448;7.306;2023-10-08T07:42:08;241.97;;;70.67;;
4533;SDS011;2279;51.448;7.306;2023-10-08T07:44:35;241.77;;;70.57;;
4533;SDS011;2279;51.448;7.306;2023-10-08T07:47:01;241.47;;;71.13;;
4533;SDS011;2279;51.448;7.306;2023-10-08T07:49:35;241.27;;;69.87;;
4533;SDS011;2279;51.448;7.306;2023-10-08T07:52:01;239.97;;;70.00;;
4533;SDS011;2279;51.448;7.306;2023-10-08T07:54:29;240.53;;;71.30;;
4533;SDS011;2279;51.448;7.306;2023-10-08T07:56:59;244.07;;;74.97;;
4533;SDS011;2279;51.448;7.306;2023-10-08T07:59:36;241.80;;;70.97;;
4533;SDS011;2279;51.448;7.306;2023-10-08T08:02:11;242.03;;;69.90;;
4533;SDS011;2279;51.448;7.306;2023-10-08T08:04:40;241.23;;;69.40;;
4533;SDS011;2279;51.448;7.306;2023-10-08T08:07:08;243.23;;;72.40;;
4533;SDS011;2279;51.448;7.306;2023-10-08T08:09:40;243.87;;;73.87;;
4533;SDS011;2279;51.448;7.306;2023-10-08T08:12:09;240.43;;;68.57;;
4533;SDS011;2279;51.448;7.306;2023-10-08T08:14:37;246.77;;;75.13;;
4533;SDS011;2279;51.448;7.306;2023-10-08T08:17:06;244.13;;;71.83;;
4533;SDS011;2279;51.448;7.306;2023-10-08T08:19:41;242.47;;;72.07;;
4533;SDS011;2279;51.448;7.306;2023-10-08T08:22:09;242.73;;;70.97;;
4533;SDS011;2279;51.448;7.306;2023-10-08T08:24:45;245.67;;;74.87;;
4533;SDS011;2279;51.448;7.306;2023-10-08T08:27:12;242.53;;;71.13;;
4533;SDS011;2279;51.448;7.306;2023-10-08T08:29:56;240.67;;;68.40;;
4533;SDS011;2279;51.448;7.306;2023-10-08T08:32:34;241.50;;;69.63;;
4533;SDS011;2279;51.448;7.306;2023-10-08T08:35:04;242.77;;;70.47;;
4533;SDS011;2279;51.448;7.306;2023-10-08T08:37:32;242.97;;;72.87;;
4533;SDS011;2279;51.448;7.306;2023-10-08T08:40:01;240.77;;;66.10;;
4533;SDS011;2279;51.448;7.306;2023-10-08T08:42:33;243.73;;;71.47;;
4533;SDS011;2279;51.448;7.306;2023-10-08T08:45:00;241.60;;;71.27;;
4533;SDS011;2279;51.448;7.306;2023-10-08T08:47:28;242.20;;;70.87;;
4533;SDS011;2279;51.448;7.306;2023-10-08T08:49:55;243.73;;;69.57;;
4533;SDS011;2279;51.448;7.306;2023-10-08T08:52:22;242.47;;;69.37;;
4533;SDS011;2279;51.448;7.306;2023-10-08T08:54:48;241.47;;;67.90;;
4533;SDS011;2279;51.448;7.306;2023-10-08T08:57:14;239.43;;;68.27;;
4533;SDS011;2279;51.448;7.306;2023-10-08T08:59:43;240.50;;;65.37;;
4533;SDS011;2279;51.448;7.306;2023-10-08T09:02:09;241.73;;;68.27;;
4533;SDS011;2279;51.448;7.306;2023-10-08T09:04:39;241.07;;;68.23;;
4533;SDS011;2279;51.448;7.306;2023-10-08T09:07:05;240.07;;;66.27;;
4533;SDS011;2279;51.448;7.306;2023-10-08T09:09:31;243.23;;;71.60;;
4533;SDS011;2279;51.448;7.306;2023-10-08T09:11:57;243.07;;;67.70;;
4533;SDS011;2279;51.448;7.306;2023-10-08T09:14:24;243.43;;;68.77;;
4533;SDS011;2279;51.448;7.306;2023-10-08T09:16:50;246.53;;;71.57;;
4533;SDS011;2279;51.448;7.306;2023-10-08T09:19:16;245.07;;;70.67;;
4533;SDS011;2279;51.448;7.306;2023-10-08T09:22:09;242.37;;;68.77;;
4533;SDS011;2279;51.448;7.306;2023-10-08T09:24:39;241.50;;;68.87;;
4533;SDS011;2279;51.448;7.306;2023-10-08T09:27:05;241.13;;;67.67;;
4533;SDS011;2279;51.448;7.306;2023-10-08T09:29:32;247.90;;;72.00;;
4533;SDS011;2279;51.448;7.306;2023-10-08T09:32:03;243.57;;;68.33;;
4533;SDS011;2279;51.448;7.306;2023-10-08T09:34:30;241.63;;;67.67;;
4533;SDS011;2279;51.448;7.306;2023-10-08T09:36:57;241.97;;;67.87;;
4533;SDS011;2279;51.448;7.306;2023-10-08T09:39:27;246.53;;;71.50;;
4533;SDS011;2279;51.448;7.306;2023-10-08T09:41:59;240.97;;;67.73;;
4533;SDS011;2279;51.448;7.306;2023-10-08T09:44:27;241.10;;;66.07;;
4533;SDS011;2279;51.448;7.306;2023-10-08T09:46:55;241.77;;;68.73;;
4533;SDS011;2279;51.448;7.306;2023-10-08T09:49:26;238.97;;;65.47;;
4533;SDS011;2279;51.448;7.306;2023-10-08T09:51:57;241.93;;;67.93;;
4533;SDS011;2279;51.448;7.306;2023-10-08T09:54:28;241.77;;;67.00;;
4533;SDS011;2279;51.448;7.306;2023-10-08T09:56:58;239.77;;;66.77;;
4533;SDS011;2279;51.448;7.306;2023-10-08T09:59:25;241.10;;;66.70;;
4533;SDS011;2279;51.448;7.306;2023-10-08T10:01:51;240.37;;;67.27;;
4533;SDS011;2279;51.448;7.306;2023-10-08T10:04:24;242.87;;;69.67;;
4533;SDS011;2279;51.448;7.306;2023-10-08T10:06:50;241.33;;;67.80;;
4533;SDS011;2279;51.448;7.306;2023-10-08T10:09:25;239.33;;;67.97;;
4533;SDS011;2279;51.448;7.306;2023-10-08T10:11:51;239.73;;;67.27;;
4533;SDS011;2279;51.448;7.306;2023-10-08T10:14:22;241.93;;;68.83;;
4533;SDS011;2279;51.448;7.306;2023-10-08T10:16:48;239.70;;;67.43;;
4533;SDS011;2279;51.448;7.306;2023-10-08T10:19:19;242.63;;;69.17;;
4533;SDS011;2279;51.448;7.306;2023-10-08T10:21:46;240.90;;;68.97;;
4533;SDS011;2279;51.448;7.306;2023-10-08T10:24:22;242.47;;;70.77;;
4533;SDS011;2279;51.448;7.306;2023-10-08T10:26:48;239.80;;;68.73;;
4533;SDS011;2279;51.448;7.306;2023-10-08T10:29:18;238.03;;;66.63;;
4533;SDS011;2279;51.448;7.306;2023-10-08T10:31:45;240.60;;;70.33;;
4533;SDS011;2279;51.448;7.306;2023-10-08T10:34:15;243.97;;;73.00;;
4533;SDS011;2279;51.448;7.306;2023-10-08T10:36:42;240.83;;;68.20;;
4533;SDS011;2279;51.448;7.306;2023-10-08T10:39:11;250.17;;;77.57;;
4533;SDS011;2279;51.448;7.306;2023-10-08T10:41:55;243.33;;;72.57;;
4533;SDS011;2279;51.448;7.306;2023-10-08T10:44:45;245.17;;;73.93;;
4533;SDS011;2279;51.448;7.306;2023-10-08T10:47:14;240.13;;;68.73;;
4533;SDS011;2279;51.448;7.306;2023-10-08T10:49:41;242.47;;;71.70;;
4533;SDS011;2279;51.448;7.306;2023-10-08T10:52:33;245.73;;;74.17;;
4533;SDS011;2279;51.448;7.306;2023-10-08T10:55:32;240.43;;;68.70;;
4533;SDS011;2279;51.448;7.306;2023-10-08T10:57:58;243.00;;;69.90;;
4533;SDS011;2279;51.448;7.306;2023-10-08T11:00:36;241.47;;;69.93;;
4533;SDS011;2279;51.448;7.306;2023-10-08T11:03:03;243.97;;;72.67;;
4533;SDS011;2279;51.448;7.306;2023-10-08T11:05:35;242.77;;;76.00;;
4533;SDS011;2279;51.448;7.306;2023-10-08T11:08:03;245.70;;;73.30;;
4533;SDS011;2279;51.448;7.306;2023-10-08T11:10:31;242.13;;;74.27;;
4533;SDS011;2279;51.448;7.306;2023-10-08T11:12:57;242.73;;;70.77;;
4533;SDS011;2279;51.448;7.306;2023-10-08T11:15:27;243.77;;;72.03;;
4533;SDS011;2279;51.448;7.306;2023-10-08T11:18:13;253.30;;;82.47;;
4533;SDS011;2279;51.448;7.306;2023-10-08T11:20:42;248.50;;;76.00;;
4533;SDS011;2279;51.448;7.306;2023-10-08T11:25:58;247.77;;;75.87;;
4533;SDS011;2279;51.448;7.306;2023-10-08T11:28:28;249.40;;;76.77;;
4533;SDS011;2279;51.448;7.306;2023-10-08T11:30:55;244.60;;;74.30;;
4533;SDS011;2279;51.448;7.306;2023-10-08T11:33:24;255.67;;;84.50;;
4533;SDS011;2279;51.448;7.306;2023-10-08T11:35:56;244.47;;;77.13;;
4533;SDS011;2279;51.448;7.306;2023-10-08T11:38:23;245.87;;;79.47;;
4533;SDS011;2279;51.448;7.306;2023-10-08T11:40:49;247.77;;;79.70;;
4533;SDS011;2279;51.448;7.306;2023-10-08T11:43:21;246.57;;;78.53;;
4533;SDS011;2279;51.448;7.306;2023-10-08T11:45:47;244.70;;;74.67;;
4533;SDS011;2279;51.448;7.306;2023-10-08T11:48:16;247.40;;;79.73;;
4533;SDS011;2279;51.448;7.306;2023-10-08T11:50:50;244.97;;;78.10;;
4533;SDS011;2279;51.448;7.306;2023-10-08T11:53:16;246.33;;;77.23;;
4533;SDS011;2279;51.448;7.306;2023-10-08T11:55:44;245.17;;;79.43;;
4533;SDS011;2279;51.448;7.306;2023-10-08T11:58:12;243.30;;;74.27;;
4533;SDS011;2279;51.448;7.306;2023-10-08T12:00:43;242.07;;;74.77;;
4533;SDS011;2279;51.448;7.306;2023-10-08T12:03:12;245.57;;;77.43;;
4533;SDS011;2279;51.448;7.306;2023-10-08T12:05:43;241.90;;;75.77;;
4533;SDS011;2279;51.448;7.306;2023-10-08T12:08:12;247.23;;;80.87;;
4533;SDS011;2279;51.448;7.306;2023-10-08T12:10:39;247.27;;;81.57;;
4533;SDS011;2279;51.448;7.306;2023-10-08T12:13:05;247.10;;;79.77;;
4533;SDS011;2279;51.448;7.306;2023-10-08T12:15:31;244.37;;;76.73;;
4533;SDS011;2279;51.448;7.306;2023-10-08T12:18:03;247.20;;;81.27;;
4533;SDS011;2279;51.448;7.306;2023-10-08T12:20:58;242.17;;;74.50;;
4533;SDS011;2279;51.448;7.306;2023-10-08T12:23:24;247.50;;;80.03;;
4533;SDS011;2279;51.448;7.306;2023-10-08T12:25:51;240.23;;;72.20;;
4533;SDS011;2279;51.448;7.306;2023-10-08T12:28:18;245.13;;;78.07;;
4533;SDS011;2279;51.448;7.306;2023-10-08T12:30:44;244.03;;;77.33;;
4533;SDS011;2279;51.448;7.306;2023-10-08T12:33:10;244.27;;;78.57;;
4533;SDS011;2279;51.448;7.306;2023-10-08T12:35:41;241.70;;;73.17;;
4533;SDS011;2279;51.448;7.306;2023-10-08T12:38:08;242.33;;;73.57;;
4533;SDS011;2279;51.448;7.306;2023-10-08T12:40:34;242.73;;;73.87;;
4533;SDS011;2279;51.448;7.306;2023-10-08T12:43:15;241.67;;;74.47;;
4533;SDS011;2279;51.448;7.306;2023-10-08T12:45:44;244.07;;;77.73;;
4533;SDS011;2279;51.448;7.306;2023-10-08T12:48:10;247.63;;;79.60;;
4533;SDS011;2279;51.448;7.306;2023-10-08T12:50:39;241.87;;;74.93;;
4533;SDS011;2279;51.448;7.306;2023-10-08T12:53:11;242.97;;;76.27;;
4533;SDS011;2279;51.448;7.306;2023-10-08T12:55:37;241.43;;;75.50;;
4533;SDS011;2279;51.448;7.306;2023-10-08T12:58:06;243.03;;;75.13;;
4533;SDS011;2279;51.448;7.306;2023-10-08T13:00:36;241.80;;;74.63;;
4533;SDS011;2279;51.448;7.306;2023-10-08T13:03:14;243.90;;;77.27;;
4533;SDS011;2279;51.448;7.306;2023-10-08T13:05:43;241.10;;;74.57;;
4533;SDS011;2279;51.448;7.306;2023-10-08T13:08:10;241.40;;;76.27;;
4533;SDS011;2279;51.448;7.306;2023-10-08T13:10:38;240.43;;;74.30;;
4533;SDS011;2279;51.448;7.306;2023-10-08T13:13:08;241.70;;;74.53;;
4533;SDS011;2279;51.448;7.306;2023-10-08T13:15:35;243.17;;;77.20;;
4533;SDS011;2279;51.448;7.306;2023-10-08T13:18:01;243.50;;;75.80;;
4533;SDS011;2279;51.448;7.306;2023-10-08T13:20:31;245.63;;;79.23;;
4533;SDS011;2279;51.448;7.306;2023-10-08T13:22:59;244.83;;;78.97;;
4533;SDS011;2279;51.448;7.306;2023-10-08T13:25:25;244.17;;;78.87;;
4533;SDS011;2279;51.448;7.306;2023-10-08T13:27:51;247.13;;;79.37;;
4533;SDS011;2279;51.448;7.306;2023-10-08T13:30:17;244.13;;;79.37;;
4533;SDS011;2279;51.448;7.306;2023-10-08T13:32:45;244.93;;;78.60;;
4533;SDS011;2279;51.448;7.306;2023-10-08T13:35:11;248.47;;;82.27;;
4533;SDS011;2279;51.448;7.306;2023-10-08T13:37:37;245.53;;;79.97;;
4533;SDS011;2279;51.448;7.306;2023-10-08T13:40:04;243.33;;;77.03;;
4533;SDS011;2279;51.448;7.306;2023-10-08T13:42:31;244.50;;;79.10;;
4533;SDS011;2279;51.448;7.306;2023-10-08T13:44:57;245.17;;;78.07;;
4533;SDS011;2279;51.448;7.306;2023-10-08T13:47:24;242.20;;;74.83;;
4533;SDS011;2279;51.448;7.306;2023-10-08T13:49:53;248.03;;;84.63;;
4533;SDS011;2279;51.448;7.306;2023-10-08T13:52:20;245.43;;;78.80;;
4533;SDS011;2279;51.448;7.306;2023-10-08T13:54:46;245.27;;;80.57;;
4533;SDS011;2279;51.448;7.306;2023-10-08T13:57:17;246.50;;;81.53;;
4533;SDS011;2279;51.448;7.306;2023-10-08T13:59:44;243.10;;;76.67;;
4533;SDS011;2279;51.448;7.306;2023-10-08T14:02:11;244.03;;;78.90;;
4533;SDS011;2279;51.448;7.306;2023-10-08T14:04:41;242.53;;;76.77;;
4533;SDS011;2279;51.448;7.306;2023-10-08T14:07:08;242.87;;;79.17;;
4533;SDS011;2279;51.448;7.306;2023-10-08T14:09:36;245.03;;;77.77;;
4533;SDS011;2279;51.448;7.306;2023-10-08T14:12:03;244.60;;;78.73;;
4533;SDS011;2279;51.448;7.306;2023-10-08T14:14:29;243.37;;;76.53;;
4533;SDS011;2279;51.448;7.306;2023-10-08T14:16:55;244.57;;;77.33;;
4533;SDS011;2279;51.448;7.306;2023-10-08T14:19:25;238.87;;;72.40;;
4533;SDS011;2279;51.448;7.306;2023-10-08T14:22:01;243.37;;;76.10;;
4533;SDS011;2279;51.448;7.306;2023-10-08T14:24:28;243.60;;;76.43;;
4533;SDS011;2279;51.448;7.306;2023-10-08T14:26:57;244.77;;;79.03;;
4533;SDS011;2279;51.448;7.306;2023-10-08T14:29:28;244.43;;;78.53;;
4533;SDS011;2279;51.448;7.306;2023-10-08T14:31:53;240.97;;;74.07;;
4533;SDS011;2279;51.448;7.306;2023-10-08T14:34:22;241.23;;;73.93;;
4533;SDS011;2279;51.448;7.306;2023-10-08T14:37:14;240.77;;;72.67;;
4533;SDS011;2279;51.448;7.306;2023-10-08T14:39:59;244.07;;;74.47;;
4533;SDS011;2279;51.448;7.306;2023-10-08T14:42:43;244.87;;;75.53;;
4533;SDS011;2279;51.448;7.306;2023-10-08T14:45:22;244.97;;;78.90;;
4533;SDS011;2279;51.448;7.306;2023-10-08T14:47:51;242.87;;;74.60;;
4533;SDS011;2279;51.448;7.306;2023-10-08T14:50:18;243.53;;;75.33;;
4533;SDS011;2279;51.448;7.306;2023-10-08T14:52:44;242.17;;;75.90;;
4533;SDS011;2279;51.448;7.306;2023-10-08T14:55:20;241.33;;;73.43;;
4533;SDS011;2279;51.448;7.306;2023-10-08T14:57:47;244.97;;;77.40;;